createdAt,value
2022-11-27T00:02:01.886Z,71.50
2022-11-27T00:04:33.798Z,121.40
2022-11-27T00:07:05.434Z,78.00
2022-11-27T00:09:37.702Z,114.60
2022-11-27T00:12:10.259Z,121.20
2022-11-27T00:14:41.935Z,123.10
2022-11-27T00:17:13.682Z,123.40
2022-11-27T00:19:45.612Z,122.10
2022-11-27T00:22:17.303Z,118.40
2022-11-27T00:24:49.387Z,75.00
2022-11-27T00:27:21.093Z,112.10
2022-11-27T00:29:52.873Z,124.20
2022-11-27T00:32:24.546Z,109.60
2022-11-27T00:34:56.688Z,122.20
2022-11-27T00:37:28.644Z,115.80
2022-11-27T00:40:00.333Z,117.40
2022-11-27T00:42:32.067Z,122.60
2022-11-27T00:45:03.977Z,132.30
2022-11-27T00:47:35.689Z,115.90
2022-11-27T00:50:09.872Z,147.20
2022-11-27T00:52:41.902Z,161.80
2022-11-27T00:55:14.888Z,97.50
2022-11-27T00:57:46.882Z,204.90
2022-11-27T01:00:20.380Z,154.60
2022-11-27T01:02:52.239Z,157.10
2022-11-27T01:05:24.176Z,149.70
2022-11-27T01:07:56.100Z,132.90
2022-11-27T01:10:27.906Z,119.80
2022-11-27T01:12:59.590Z,124.60
2022-11-27T01:15:31.206Z,122.80
2022-11-27T01:18:03.004Z,134.80
2022-11-27T01:20:34.898Z,123.30
2022-11-27T01:23:06.557Z,113.80
2022-11-27T01:25:38.412Z,116.00
2022-11-27T01:28:15.612Z,122.20
2022-11-27T01:30:48.709Z,125.20
2022-11-27T01:33:20.682Z,123.50
2022-11-27T01:35:58.435Z,93.50
2022-11-27T01:38:31.519Z,128.90
2022-11-27T01:41:05.332Z,111.00
2022-11-27T01:43:42.817Z,98.70
2022-11-27T01:46:36.076Z,119.00
2022-11-27T01:49:23.647Z,118.10
2022-11-27T01:51:59.022Z,122.30
2022-11-27T01:54:33.846Z,112.80
2022-11-27T01:57:11.317Z,115.50
2022-11-27T01:59:43.724Z,112.40
2022-11-27T02:02:15.560Z,129.10
2022-11-27T02:04:47.390Z,108.30
2022-11-27T02:07:19.302Z,117.20
2022-11-27T02:09:51.285Z,108.40
2022-11-27T02:12:26.477Z,113.80
2022-11-27T02:15:08.055Z,108.70
2022-11-27T02:17:46.792Z,112.20
2022-11-27T02:20:37.133Z,108.00
2022-11-27T02:23:42.606Z,115.40
2022-11-27T02:26:38.375Z,101.10
2022-11-27T02:29:12.067Z,118.40
2022-11-27T02:31:53.100Z,106.00
2022-11-27T02:34:29.833Z,97.30
2022-11-27T02:37:15.337Z,87.70
2022-11-27T02:39:53.337Z,101.80
2022-11-27T02:42:27.642Z,104.30
2022-11-27T02:45:03.360Z,100.50
2022-11-27T02:47:35.644Z,97.80
2022-11-27T02:50:10.701Z,101.10
2022-11-27T02:52:45.436Z,94.20
2022-11-27T02:55:23.025Z,89.70
2022-11-27T02:57:57.531Z,104.10
2022-11-27T03:00:30.137Z,101.90
2022-11-27T03:05:40.377Z,101.00
2022-11-27T03:08:23.710Z,107.50
2022-11-27T03:11:03.223Z,93.40
2022-11-27T03:13:38.913Z,102.40
2022-11-27T03:16:18.116Z,82.90
2022-11-27T03:18:58.388Z,102.40
2022-11-27T03:21:35.631Z,103.50
2022-11-27T03:24:09.118Z,101.10
2022-11-27T03:26:43.613Z,108.00
2022-11-27T03:29:19.015Z,99.30
2022-11-27T03:31:51.226Z,106.80
2022-11-27T03:34:23.293Z,103.60
2022-11-27T03:36:55.053Z,99.30
2022-11-27T03:39:27.931Z,94.30
2022-11-27T03:42:09.069Z,87.30
2022-11-27T03:44:48.046Z,97.00
2022-11-27T03:47:27.294Z,96.90
2022-11-27T03:50:13.036Z,95.50
2022-11-27T03:52:54.085Z,95.80
2022-11-27T03:55:37.091Z,87.30
2022-11-27T03:58:13.042Z,87.50
2022-11-27T04:00:47.077Z,90.10
2022-11-27T04:03:26.657Z,92.70
2022-11-27T04:05:58.790Z,99.90
2022-11-27T04:08:30.589Z,90.00
2022-11-27T04:11:02.391Z,80.20
2022-11-27T04:13:34.083Z,96.90
2022-11-27T04:16:06.811Z,107.00
2022-11-27T04:18:38.832Z,98.00
2022-11-27T04:21:12.048Z,92.20
2022-11-27T04:23:43.828Z,100.30
2022-11-27T04:26:15.629Z,102.10
2022-11-27T04:28:47.770Z,107.30
2022-11-27T04:31:19.520Z,39.90
2022-11-27T04:33:51.432Z,124.20
2022-11-27T04:36:23.347Z,124.60
2022-11-27T04:38:55.094Z,94.00
2022-11-27T04:41:26.707Z,140.50
2022-11-27T04:43:58.417Z,133.40
2022-11-27T04:46:30.131Z,132.10
2022-11-27T04:49:01.849Z,150.80
2022-11-27T04:51:33.636Z,116.70
2022-11-27T04:54:05.564Z,141.20
2022-11-27T04:56:37.444Z,111.40
2022-11-27T04:59:09.580Z,129.40
2022-11-27T05:01:42.979Z,90.00
2022-11-27T05:04:14.830Z,143.20
2022-11-27T05:06:46.519Z,139.70
2022-11-27T05:09:19.410Z,147.00
2022-11-27T05:11:51.263Z,134.00
2022-11-27T05:14:29.140Z,134.90
2022-11-27T05:17:02.028Z,146.60
2022-11-27T05:22:04.352Z,137.20
2022-11-27T05:24:36.082Z,142.20
2022-11-27T05:27:07.971Z,141.80
2022-11-27T05:29:40.443Z,138.20
2022-11-27T05:32:12.076Z,126.80
2022-11-27T05:34:43.850Z,80.30
2022-11-27T05:37:19.454Z,120.80
2022-11-27T05:39:51.920Z,109.90
2022-11-27T05:42:23.696Z,72.80
2022-11-27T05:44:58.545Z,76.60
2022-11-27T05:47:30.564Z,100.20
2022-11-27T05:50:02.268Z,95.60
2022-11-27T05:52:34.031Z,103.00
2022-11-27T05:55:06.317Z,109.00
2022-11-27T05:57:38.108Z,107.10
2022-11-27T06:00:12.503Z,112.00
2022-11-27T06:02:44.430Z,121.50
2022-11-27T06:05:17.186Z,115.10
2022-11-27T06:07:48.857Z,96.60
2022-11-27T06:10:20.728Z,104.30
2022-11-27T06:12:52.488Z,115.20
2022-11-27T06:15:24.275Z,103.90
2022-11-27T06:17:56.392Z,104.70
2022-11-27T06:20:28.090Z,124.10
2022-11-27T06:22:59.848Z,73.50
2022-11-27T06:25:33.252Z,127.30
2022-11-27T06:28:05.223Z,126.40
2022-11-27T06:30:37.991Z,143.40
2022-11-27T06:33:09.678Z,145.20
2022-11-27T06:35:41.608Z,148.80
2022-11-27T06:38:13.611Z,121.00
2022-11-27T06:40:45.350Z,122.30
2022-11-27T06:43:17.380Z,126.80
2022-11-27T06:45:57.706Z,130.70
2022-11-27T06:48:30.174Z,123.20
2022-11-27T06:51:03.860Z,121.50
2022-11-27T06:53:37.254Z,120.70
2022-11-27T06:56:11.433Z,133.70
2022-11-27T06:58:44.311Z,116.00
2022-11-27T07:01:18.169Z,128.60
2022-11-27T07:03:50.088Z,131.50
2022-11-27T07:06:24.704Z,134.00
2022-11-27T07:08:57.917Z,137.30
2022-11-27T07:11:31.869Z,133.10
2022-11-27T07:14:05.470Z,126.10
2022-11-27T07:16:38.746Z,137.90
2022-11-27T07:19:12.349Z,116.70
2022-11-27T07:21:44.316Z,118.70
2022-11-27T07:24:16.047Z,74.90
2022-11-27T07:26:47.790Z,112.80
2022-11-27T07:29:19.587Z,117.00
2022-11-27T07:31:51.850Z,122.40
2022-11-27T07:34:24.150Z,119.70
2022-11-27T07:36:56.120Z,75.80
2022-11-27T07:39:54.032Z,113.40
2022-11-27T07:45:13.845Z,109.50
2022-11-27T07:47:45.576Z,113.40
2022-11-27T07:50:17.402Z,108.90
2022-11-27T07:52:49.457Z,113.40
2022-11-27T07:55:21.273Z,123.90
2022-11-27T07:57:53.101Z,118.30
2022-11-27T08:00:26.993Z,113.00
2022-11-27T08:02:59.464Z,120.40
2022-11-27T08:05:31.207Z,119.20
2022-11-27T08:08:05.104Z,92.00
2022-11-27T08:10:39.314Z,120.60
2022-11-27T08:13:12.760Z,114.40
2022-11-27T08:15:46.050Z,104.40
2022-11-27T08:18:17.778Z,118.50
2022-11-27T08:20:50.006Z,106.80
2022-11-27T08:23:22.119Z,112.50
2022-11-27T08:25:53.949Z,110.70
2022-11-27T08:28:25.685Z,96.90
2022-11-27T08:31:02.135Z,73.10
2022-11-27T08:33:35.004Z,112.70
2022-11-27T08:38:41.698Z,106.90
2022-11-27T08:41:13.621Z,125.80
2022-11-27T08:43:45.579Z,109.90
2022-11-27T08:46:17.573Z,122.10
2022-11-27T08:48:51.055Z,122.60
2022-11-27T08:51:24.565Z,119.40
2022-11-27T08:53:57.724Z,129.40
2022-11-27T08:56:30.865Z,116.70
2022-11-27T08:59:02.982Z,114.00
2022-11-27T09:01:36.483Z,74.40
2022-11-27T09:04:09.026Z,120.30
2022-11-27T09:06:43.239Z,110.80
2022-11-27T09:09:15.721Z,115.10
2022-11-27T09:11:48.441Z,118.70
2022-11-27T09:16:51.477Z,111.80
2022-11-27T09:19:23.444Z,91.50
2022-11-27T09:21:56.261Z,82.20
2022-11-27T09:24:28.064Z,81.80
2022-11-27T09:26:59.781Z,84.10
2022-11-27T09:29:31.646Z,72.80
2022-11-27T09:32:04.566Z,72.10
2022-11-27T09:34:41.848Z,68.70
2022-11-27T09:37:14.139Z,63.60
2022-11-27T09:39:46.948Z,66.90
2022-11-27T09:42:32.300Z,63.70
2022-11-27T09:45:07.044Z,67.50
2022-11-27T09:47:42.653Z,65.60
2022-11-27T09:50:17.727Z,62.40
2022-11-27T09:52:55.582Z,65.30
2022-11-27T09:55:33.032Z,68.60
2022-11-27T09:58:15.131Z,62.60
2022-11-27T10:00:49.419Z,69.10
2022-11-27T10:03:26.036Z,61.70
2022-11-27T10:06:07.193Z,63.40
2022-11-27T10:08:51.841Z,62.30
2022-11-27T10:11:30.837Z,58.30
2022-11-27T10:14:26.812Z,57.90
2022-11-27T10:17:06.448Z,59.30
2022-11-27T10:19:50.220Z,54.00
2022-11-27T10:22:26.311Z,48.50
2022-11-27T10:25:12.480Z,58.10
2022-11-27T10:27:53.208Z,53.50
2022-11-27T10:30:25.224Z,51.30
2022-11-27T10:32:59.513Z,36.20
2022-11-27T10:35:33.752Z,48.50
2022-11-27T10:38:12.486Z,37.40
2022-11-27T10:40:50.167Z,45.10
2022-11-27T10:43:23.876Z,42.10
2022-11-27T10:46:00.551Z,50.10
2022-11-27T10:48:33.736Z,44.50
2022-11-27T10:51:11.047Z,45.20
2022-11-27T10:53:47.125Z,41.60
2022-11-27T10:56:45.831Z,45.20
2022-11-27T10:59:20.402Z,47.50
2022-11-27T11:01:54.269Z,43.50
2022-11-27T11:04:37.876Z,37.60
2022-11-27T11:07:27.607Z,44.00
2022-11-27T11:10:00.144Z,38.50
2022-11-27T11:12:32.226Z,45.20
2022-11-27T11:15:12.022Z,39.10
2022-11-27T11:17:44.048Z,38.40
2022-11-27T11:20:25.227Z,35.70
2022-11-27T11:22:57.418Z,37.10
2022-11-27T11:25:29.165Z,39.10
2022-11-27T11:28:01.181Z,32.10
2022-11-27T11:30:34.893Z,26.70
2022-11-27T11:33:08.214Z,44.90
2022-11-27T11:35:41.250Z,41.80
2022-11-27T11:38:19.956Z,43.60
2022-11-27T11:41:04.739Z,39.70
2022-11-27T11:43:38.196Z,29.20
2022-11-27T11:46:22.982Z,31.90
2022-11-27T11:49:01.845Z,31.70
2022-11-27T11:51:47.589Z,30.70
2022-11-27T11:54:39.440Z,27.40
2022-11-27T11:57:31.555Z,40.50
2022-11-27T12:00:11.687Z,31.00
2022-11-27T12:03:05.833Z,35.20
2022-11-27T12:05:56.437Z,30.30
2022-11-27T12:08:43.661Z,30.70
2022-11-27T12:11:20.241Z,31.10
2022-11-27T12:14:11.352Z,29.60
2022-11-27T12:16:59.427Z,30.90
2022-11-27T12:19:54.876Z,29.40
2022-11-27T12:22:42.936Z,28.40
2022-11-27T12:25:27.782Z,26.80
2022-11-27T12:28:18.934Z,31.10
2022-11-27T12:30:59.330Z,35.30
2022-11-27T12:33:51.759Z,26.60
2022-11-27T12:36:33.417Z,28.20
2022-11-27T12:39:22.670Z,27.40
2022-11-27T12:42:20.572Z,26.30
2022-11-27T12:45:01.466Z,25.70
2022-11-27T12:47:42.368Z,27.30
2022-11-27T12:50:24.056Z,26.90
2022-11-27T12:53:05.205Z,31.70
2022-11-27T12:55:39.711Z,26.80
2022-11-27T12:58:28.160Z,29.90
2022-11-27T13:01:08.091Z,26.80
2022-11-27T13:03:50.487Z,29.20
2022-11-27T13:06:27.559Z,29.20
2022-11-27T13:09:04.679Z,34.10
2022-11-27T13:11:40.511Z,29.00
2022-11-27T13:14:18.040Z,24.90
2022-11-27T13:16:55.287Z,24.80
2022-11-27T13:19:32.771Z,24.50
2022-11-27T13:22:10.256Z,28.90
2022-11-27T13:24:43.078Z,28.90
2022-11-27T13:27:19.976Z,34.10
2022-11-27T13:29:55.929Z,33.40
2022-11-27T13:32:30.716Z,33.50
2022-11-27T13:35:06.684Z,32.10
2022-11-27T13:37:41.004Z,32.60
2022-11-27T13:40:24.727Z,32.30
2022-11-27T13:43:07.043Z,35.40
2022-11-27T13:45:41.221Z,36.30
2022-11-27T13:48:30.104Z,40.00
2022-11-27T13:51:11.517Z,38.30
2022-11-27T13:53:45.316Z,40.30
2022-11-27T13:56:17.039Z,39.00
2022-11-27T13:58:50.755Z,40.90
2022-11-27T14:01:24.752Z,41.90
2022-11-27T14:04:10.749Z,46.90
2022-11-27T14:06:52.766Z,39.10
2022-11-27T14:09:36.681Z,36.50
2022-11-27T14:12:21.590Z,43.00
2022-11-27T14:15:25.114Z,39.60
2022-11-27T14:18:09.500Z,46.60
2022-11-27T14:20:50.548Z,44.30
2022-11-27T14:23:32.323Z,40.90
2022-11-27T14:26:24.872Z,46.90
2022-11-27T14:28:59.451Z,43.10
2022-11-27T14:31:35.257Z,42.70
2022-11-27T14:34:16.041Z,39.20
2022-11-27T14:36:52.476Z,38.50
2022-11-27T14:39:32.907Z,39.60
2022-11-27T14:42:06.502Z,49.20
2022-11-27T14:44:38.635Z,42.80
2022-11-27T14:47:23.928Z,46.50
2022-11-27T14:49:57.939Z,46.20
2022-11-27T14:52:30.431Z,48.10
2022-11-27T14:55:04.185Z,52.10
2022-11-27T14:57:36.435Z,49.30
2022-11-27T15:00:18.584Z,55.20
2022-11-27T15:02:52.091Z,54.00
2022-11-27T15:05:27.705Z,52.20
2022-11-27T15:08:01.923Z,54.00
2022-11-27T15:10:38.250Z,56.50
2022-11-27T15:13:22.189Z,61.10
2022-11-27T15:16:03.482Z,59.00
2022-11-27T15:18:38.760Z,57.80
2022-11-27T15:21:19.020Z,58.80
2022-11-27T15:23:53.814Z,58.50
2022-11-27T15:26:41.082Z,59.70
2022-11-27T15:32:23.706Z,53.10
2022-11-27T15:34:56.495Z,60.00
2022-11-27T15:37:31.778Z,58.90
2022-11-27T15:40:03.724Z,51.00
2022-11-27T15:42:35.967Z,52.30
2022-11-27T15:45:12.158Z,54.20
2022-11-27T15:47:44.295Z,59.80
2022-11-27T15:50:18.366Z,58.00
2022-11-27T15:52:50.846Z,54.90
2022-11-27T15:55:24.684Z,58.90
2022-11-27T15:57:56.440Z,56.20
2022-11-27T16:00:28.360Z,59.40
2022-11-27T16:03:01.975Z,52.70
2022-11-27T16:05:34.620Z,59.90
2022-11-27T16:08:07.952Z,64.20
2022-11-27T16:10:43.039Z,58.10
2022-11-27T16:13:15.486Z,58.30
2022-11-27T16:15:47.253Z,57.90
2022-11-27T16:18:20.540Z,55.90
2022-11-27T16:20:52.274Z,63.40
2022-11-27T16:23:24.230Z,59.60
2022-11-27T16:25:55.876Z,63.50
2022-11-27T16:28:28.541Z,70.10
2022-11-27T16:33:33.503Z,63.40
2022-11-27T16:36:11.243Z,63.60
2022-11-27T16:38:44.857Z,63.30
2022-11-27T16:41:18.607Z,58.70
2022-11-27T16:43:53.471Z,59.60
2022-11-27T16:46:28.659Z,65.60
2022-11-27T16:49:01.594Z,68.40
2022-11-27T16:51:36.240Z,55.30
2022-11-27T16:54:11.642Z,63.60
2022-11-27T16:56:46.449Z,66.30
2022-11-27T16:59:18.680Z,64.60
2022-11-27T17:01:50.763Z,46.40
2022-11-27T17:04:22.932Z,61.10
2022-11-27T17:06:54.723Z,71.40
2022-11-27T17:09:29.302Z,67.10
2022-11-27T17:12:02.674Z,63.10
2022-11-27T17:14:37.011Z,67.90
2022-11-27T17:17:08.717Z,62.00
2022-11-27T17:19:41.211Z,57.80
2022-11-27T17:22:13.687Z,68.10
2022-11-27T17:24:45.936Z,68.20
2022-11-27T17:27:19.413Z,67.40
2022-11-27T17:32:24.561Z,63.60
2022-11-27T17:34:56.251Z,66.80
2022-11-27T17:37:28.076Z,64.70
2022-11-27T17:39:59.916Z,75.10
2022-11-27T17:42:31.574Z,64.20
2022-11-27T17:45:03.565Z,65.00
2022-11-27T17:47:35.455Z,68.70
2022-11-27T17:50:09.263Z,68.20
2022-11-27T17:52:41.207Z,66.10
2022-11-27T17:55:13.410Z,54.00
2022-11-27T18:00:18.860Z,64.50
2022-11-27T18:02:51.338Z,72.10
2022-11-27T18:05:23.695Z,64.70
2022-11-27T18:07:56.361Z,67.40
2022-11-27T18:10:28.899Z,67.00
2022-11-27T18:13:05.136Z,64.20
2022-11-27T18:15:41.467Z,63.00
2022-11-27T18:18:18.348Z,64.00
2022-11-27T18:20:51.228Z,71.30
2022-11-27T18:25:53.713Z,68.30
2022-11-27T18:28:25.421Z,69.10
2022-11-27T18:30:57.759Z,79.80
2022-11-27T18:33:29.521Z,70.70
2022-11-27T18:36:01.408Z,77.30
2022-11-27T18:38:34.576Z,76.20
2022-11-27T18:41:12.763Z,76.00
2022-11-27T18:43:46.217Z,87.80
2022-11-27T18:48:51.346Z,85.60
2022-11-27T18:51:25.414Z,76.50
2022-11-27T18:53:57.297Z,78.30
2022-11-27T18:56:31.368Z,87.10
2022-11-27T18:59:05.716Z,77.30
2022-11-27T19:01:42.646Z,74.90
2022-11-27T19:04:15.476Z,71.00
2022-11-27T19:06:48.061Z,79.00
2022-11-27T19:09:20.868Z,81.60
2022-11-27T19:14:25.238Z,85.60
2022-11-27T19:17:03.028Z,90.40
2022-11-27T19:22:27.930Z,93.10
2022-11-27T19:25:01.866Z,87.10
2022-11-27T19:27:34.107Z,61.00
2022-11-27T19:30:11.296Z,91.40
2022-11-27T19:32:46.615Z,83.60
2022-11-27T19:35:24.538Z,93.50
2022-11-27T19:38:01.453Z,99.50
2022-11-27T19:40:38.541Z,86.80
2022-11-27T19:43:13.943Z,84.70
2022-11-27T19:45:50.465Z,92.50
2022-11-27T19:48:23.649Z,80.60
2022-11-27T19:51:01.715Z,86.20
2022-11-27T19:53:33.423Z,81.50
2022-11-27T19:56:05.469Z,62.70
2022-11-27T19:58:39.137Z,76.20
2022-11-27T20:01:14.050Z,71.90
2022-11-27T20:03:46.880Z,72.50
2022-11-27T20:06:20.429Z,71.10
2022-11-27T20:08:59.372Z,75.90
2022-11-27T20:11:35.123Z,78.70
2022-11-27T20:14:08.902Z,79.30
2022-11-27T20:16:41.253Z,75.70
2022-11-27T20:19:13.439Z,78.30
2022-11-27T20:21:46.242Z,77.20
2022-11-27T20:24:18.552Z,70.20
2022-11-27T20:26:50.495Z,78.20
2022-11-27T20:29:23.800Z,52.00
2022-11-27T20:31:56.562Z,69.40
2022-11-27T20:34:28.820Z,68.80
2022-11-27T20:37:00.680Z,76.50
2022-11-27T20:39:32.563Z,79.00
2022-11-27T20:44:36.413Z,74.40
2022-11-27T20:47:08.402Z,78.60
2022-11-27T20:49:40.686Z,89.00
2022-11-27T20:52:14.647Z,94.10
2022-11-27T20:54:46.340Z,92.30
2022-11-27T20:57:18.636Z,87.60
2022-11-27T20:59:51.061Z,99.30
2022-11-27T21:02:23.714Z,96.70
2022-11-27T21:04:56.265Z,95.60
2022-11-27T21:07:28.181Z,89.90
2022-11-27T21:10:00.209Z,88.60
2022-11-27T21:12:32.393Z,92.30
2022-11-27T21:15:05.160Z,83.70
2022-11-27T21:17:37.874Z,95.20
2022-11-27T21:22:44.046Z,95.50
2022-11-27T21:25:16.311Z,89.80
2022-11-27T21:27:48.221Z,84.70
2022-11-27T21:30:20.943Z,90.60
2022-11-27T21:32:53.743Z,81.70
2022-11-27T21:35:31.211Z,90.60
2022-11-27T21:38:03.583Z,85.80
2022-11-27T21:40:37.323Z,65.40
2022-11-27T21:43:09.684Z,84.50
2022-11-27T21:45:41.632Z,91.20
2022-11-27T21:48:16.957Z,90.20
2022-11-27T21:50:49.283Z,85.90
2022-11-27T21:53:22.618Z,81.40
2022-11-27T21:55:54.385Z,82.80
2022-11-27T21:58:26.864Z,59.80
2022-11-27T22:00:58.965Z,79.70
2022-11-27T22:03:30.947Z,79.20
2022-11-27T22:06:04.344Z,86.50
2022-11-27T22:08:37.684Z,80.10
2022-11-27T22:11:11.420Z,80.00
2022-11-27T22:13:43.815Z,90.60
2022-11-27T22:18:47.974Z,91.20
2022-11-27T22:21:19.953Z,93.00
2022-11-27T22:23:52.339Z,92.80
2022-11-27T22:26:25.591Z,99.10
2022-11-27T22:29:00.837Z,88.80
2022-11-27T22:31:34.006Z,91.30
2022-11-27T22:34:05.870Z,102.70
2022-11-27T22:36:38.093Z,105.70
2022-11-27T22:39:10.285Z,89.60
2022-11-27T22:41:43.301Z,98.10
2022-11-27T22:44:19.143Z,109.40
2022-11-27T22:46:51.382Z,107.90
2022-11-27T22:49:23.296Z,65.00
2022-11-27T22:51:55.006Z,106.90
2022-11-27T22:54:27.192Z,100.60
2022-11-27T22:56:59.581Z,99.60
2022-11-27T22:59:33.607Z,101.60
2022-11-27T23:02:08.098Z,99.10
2022-11-27T23:04:41.406Z,109.60
2022-11-27T23:07:14.037Z,104.90
2022-11-27T23:09:45.777Z,107.70
2022-11-27T23:12:17.766Z,119.60
2022-11-27T23:14:49.474Z,115.00
2022-11-27T23:17:21.079Z,113.10
2022-11-27T23:19:52.744Z,107.50
2022-11-27T23:22:25.071Z,122.50
2022-11-27T23:25:02.120Z,115.50
2022-11-27T23:27:37.829Z,116.00
2022-11-27T23:30:15.664Z,118.30
2022-11-27T23:32:51.191Z,115.10
2022-11-27T23:35:28.220Z,113.30
2022-11-27T23:38:03.986Z,111.50
2022-11-27T23:40:39.356Z,110.80
2022-11-27T23:43:11.608Z,104.10
2022-11-27T23:45:46.865Z,105.60
2022-11-27T23:48:18.721Z,97.00
2022-11-27T23:50:50.699Z,104.30
2022-11-27T23:53:22.651Z,112.20
2022-11-27T23:55:54.469Z,109.20
2022-11-27T23:58:26.492Z,109.30
